Time;durP1;ratioP1;P1;durP2;ratioP2;P2;SDS_P1;SDS_P2;PMS_P1;PMS_P2;Temp;Humidity;BMP_temperature;BMP_pressure;BME280_temperature;BME280_humidity;BME280_pressure;Samples;Min_cycle;Max_cycle;Signal;HPM_P1;HPM_P2
2023/01/06 00:00:39;;;;;;;;;;;16.40;99.90;;;;;;5034057;28;20228;-86
2023/01/06 00:03:07;;;;;;;;;;;16.40;99.90;;;;;;5035590;28;20003;-85
2023/01/06 00:05:32;;;;;;;;;;;16.40;99.90;;;;;;5034179;28;20108;-85
2023/01/06 00:07:58;;;;;;;;;;;16.40;99.90;;;;;;5033328;28;20251;-86
2023/01/06 00:10:24;;;;;;;;;;;16.40;99.90;;;;;;5033369;28;19924;-85
2023/01/06 00:12:49;;;;;;;;;;;16.40;99.90;;;;;;5035182;28;19908;-85
2023/01/06 00:15:16;;;;;;;;;;;16.40;99.90;;;;;;5034039;28;20270;-85
2023/01/06 00:17:42;;;;;;;;;;;16.40;99.90;;;;;;5034593;28;20204;-86
2023/01/06 00:20:08;;;;;;;;;;;16.30;99.90;;;;;;5038124;28;19978;-85
2023/01/06 00:22:34;;;;;;;;;;;16.30;99.90;;;;;;5040699;28;20286;-85
2023/01/06 00:24:59;;;;;;;;;;;16.30;99.90;;;;;;5040711;28;19967;-85
2023/01/06 00:27:25;;;;;;;;;;;16.40;99.90;;;;;;5057316;28;19917;-85
2023/01/06 00:29:51;;;;;;;;;;;16.40;99.90;;;;;;5040863;28;20085;-85
2023/01/06 00:32:18;;;;;;;;;;;16.40;99.90;;;;;;5040295;28;20007;-85
2023/01/06 00:34:44;;;;;;;;;;;16.40;99.90;;;;;;5041047;28;19913;-86
2023/01/06 00:37:10;;;;;;;;;;;16.30;99.90;;;;;;5057935;28;19919;-85
2023/01/06 00:39:35;;;;;;;;;;;16.30;99.90;;;;;;5040726;28;20255;-86
2023/01/06 00:42:04;;;;;;;;;;;16.40;99.90;;;;;;5041334;28;19909;-85
2023/01/06 00:44:30;;;;;;;;;;;16.40;99.90;;;;;;5041334;28;20352;-85
2023/01/06 00:46:56;;;;;;;;;;;16.30;99.90;;;;;;5041132;28;19909;-85
2023/01/06 00:49:21;;;;;;;;;;;16.40;99.90;;;;;;5042861;28;19915;-86
2023/01/06 00:51:47;;;;;;;;;;;16.40;99.90;;;;;;5041978;28;19909;-85
2023/01/06 00:54:13;;;;;;;;;;;16.40;99.90;;;;;;5041721;28;19909;-86
2023/01/06 00:56:40;;;;;;;;;;;16.40;99.90;;;;;;5058780;28;19967;-85
2023/01/06 00:59:06;;;;;;;;;;;16.40;99.90;;;;;;5041156;28;19913;-86
2023/01/06 01:01:32;;;;;;;;;;;16.40;99.90;;;;;;5040760;28;20290;-86
2023/01/06 01:03:58;;;;;;;;;;;16.40;99.90;;;;;;5058476;28;19947;-85
2023/01/06 01:06:24;;;;;;;;;;;16.40;99.90;;;;;;5041357;28;20005;-86
2023/01/06 01:08:53;;;;;;;;;;;16.40;99.90;;;;;;5041114;28;19939;-85
2023/01/06 01:14:03;;;;;;;;;;;16.40;99.90;;;;;;5058515;28;20278;-85
2023/01/06 01:16:29;;;;;;;;;;;16.40;99.90;;;;;;5041021;28;19917;-85
2023/01/06 01:18:54;;;;;;;;;;;16.40;99.90;;;;;;5040808;28;20219;-85
2023/01/06 01:21:20;;;;;;;;;;;16.40;99.90;;;;;;5040768;28;19917;-85
2023/01/06 01:23:45;;;;;;;;;;;16.30;99.90;;;;;;5057219;28;19916;-85
2023/01/06 01:26:19;;;;;;;;;;;16.30;99.90;;;;;;5058336;28;19975;-85
2023/01/06 01:28:46;;;;;;;;;;;16.30;99.90;;;;;;5041345;28;19969;-85
2023/01/06 01:31:19;;;;;;;;;;;16.30;99.90;;;;;;4969435;28;20135;-86
2023/01/06 01:33:45;;;;;;;;;;;16.30;99.90;;;;;;5040047;28;19917;-85
2023/01/06 01:36:14;;;;;;;;;;;16.30;99.90;;;;;;5038775;28;19913;-86
2023/01/06 01:38:39;;;;;;;;;;;16.30;99.90;;;;;;5039474;28;20006;-85
2023/01/06 01:41:05;;;;;;;;;;;16.30;99.90;;;;;;5039192;28;19966;-85
2023/01/06 01:43:47;;;;;;;;;;;16.30;99.90;;;;;;5038516;28;19959;-85
2023/01/06 01:46:16;;;;;;;;;;;16.30;99.90;;;;;;5039505;28;20011;-85
2023/01/06 01:48:42;;;;;;;;;;;16.30;99.90;;;;;;5040108;28;19917;-85
2023/01/06 01:51:10;;;;;;;;;;;16.30;99.90;;;;;;5040077;28;20275;-85
2023/01/06 01:53:41;;;;;;;;;;;16.30;99.90;;;;;;5040574;28;20270;-85
2023/01/06 01:56:10;;;;;;;;;;;16.30;99.90;;;;;;5040617;28;20072;-86
2023/01/06 01:58:58;;;;;;;;;;;16.30;99.90;;;;;;5040639;28;19963;-85
2023/01/06 02:01:24;;;;;;;;;;;16.30;99.90;;;;;;5032482;28;19909;-85
2023/01/06 02:03:50;;;;;;;;;;;16.30;99.90;;;;;;5040767;28;19916;-85
2023/01/06 02:06:18;;;;;;;;;;;16.20;99.90;;;;;;5041511;28;19909;-85
2023/01/06 02:08:47;;;;;;;;;;;16.30;99.90;;;;;;5039358;28;19924;-86
2023/01/06 02:11:13;;;;;;;;;;;16.30;99.90;;;;;;5038750;28;19916;-86
2023/01/06 02:13:40;;;;;;;;;;;16.30;99.90;;;;;;5039330;28;19909;-85
2023/01/06 02:16:12;;;;;;;;;;;16.20;99.90;;;;;;5037600;28;20337;-86
2023/01/06 02:18:43;;;;;;;;;;;16.20;99.90;;;;;;5039269;28;19921;-86
2023/01/06 02:21:28;;;;;;;;;;;16.20;99.90;;;;;;5036589;28;20322;-85
2023/01/06 02:23:56;;;;;;;;;;;16.20;99.90;;;;;;5038299;28;20011;-86
2023/01/06 02:26:21;;;;;;;;;;;16.20;99.90;;;;;;5039258;28;20258;-86
2023/01/06 02:29:05;;;;;;;;;;;16.20;99.90;;;;;;5038294;28;20003;-86
2023/01/06 02:32:06;;;;;;;;;;;16.20;99.90;;;;;;5039280;28;20294;-85
2023/01/06 02:34:32;;;;;;;;;;;16.20;99.90;;;;;;4977919;28;19918;-86
2023/01/06 02:36:57;;;;;;;;;;;16.20;99.90;;;;;;5043000;28;19913;-86
2023/01/06 02:39:34;;;;;;;;;;;16.20;99.90;;;;;;5039791;28;20003;-85
2023/01/06 02:42:19;;;;;;;;;;;16.20;99.90;;;;;;5037987;28;20191;-86
2023/01/06 02:45:03;;;;;;;;;;;16.20;99.90;;;;;;5038330;28;19909;-86
2023/01/06 02:47:33;;;;;;;;;;;16.20;99.90;;;;;;5038721;28;19963;-85
2023/01/06 02:50:17;;;;;;;;;;;16.20;99.90;;;;;;5056397;28;20000;-85
2023/01/06 02:52:52;;;;;;;;;;;16.20;99.90;;;;;;5039165;28;19923;-86
2023/01/06 02:55:25;;;;;;;;;;;16.20;99.90;;;;;;5037315;28;19917;-85
2023/01/06 02:57:56;;;;;;;;;;;16.10;99.90;;;;;;5036534;28;19908;-85
2023/01/06 03:00:22;;;;;;;;;;;16.20;99.90;;;;;;5036723;28;19916;-86
2023/01/06 03:02:52;;;;;;;;;;;16.20;99.90;;;;;;5037852;28;19991;-86
2023/01/06 03:05:17;;;;;;;;;;;16.10;99.90;;;;;;5038314;28;19970;-86
2023/01/06 03:07:45;;;;;;;;;;;16.10;99.90;;;;;;5038372;28;19921;-86
2023/01/06 03:10:12;;;;;;;;;;;16.10;99.90;;;;;;5036919;28;19909;-86
2023/01/06 03:12:44;;;;;;;;;;;16.10;99.90;;;;;;5057178;28;20019;-85
2023/01/06 03:15:10;;;;;;;;;;;16.10;99.90;;;;;;5040497;28;19909;-86
2023/01/06 03:17:35;;;;;;;;;;;16.10;99.90;;;;;;5039867;28;19919;-85
2023/01/06 03:20:01;;;;;;;;;;;16.10;99.90;;;;;;5040127;28;19936;-85
2023/01/06 03:22:27;;;;;;;;;;;16.10;99.90;;;;;;5039947;28;20007;-85
2023/01/06 03:24:53;;;;;;;;;;;16.10;99.90;;;;;;5040317;28;20328;-85
2023/01/06 03:27:20;;;;;;;;;;;16.10;99.90;;;;;;5037467;28;19916;-85
2023/01/06 03:29:46;;;;;;;;;;;16.10;99.90;;;;;;5038026;28;19919;-85
2023/01/06 03:32:17;;;;;;;;;;;16.10;99.90;;;;;;5037669;28;19908;-85
2023/01/06 03:34:58;;;;;;;;;;;16.10;99.90;;;;;;5036402;28;20279;-85
2023/01/06 03:37:35;;;;;;;;;;;16.10;99.90;;;;;;5036703;28;19939;-85
2023/01/06 03:40:07;;;;;;;;;;;16.10;99.90;;;;;;5036336;28;19909;-85
2023/01/06 03:45:20;;;;;;;;;;;16.10;99.90;;;;;;5054768;28;20312;-85
2023/01/06 03:48:00;;;;;;;;;;;16.00;99.90;;;;;;5036459;28;19970;-85
2023/01/06 03:50:30;;;;;;;;;;;16.00;99.90;;;;;;5036835;28;19971;-85
2023/01/06 03:53:19;;;;;;;;;;;16.00;99.90;;;;;;5036866;28;19909;-85
2023/01/06 03:55:47;;;;;;;;;;;16.00;99.90;;;;;;5042966;28;20179;-85
2023/01/06 03:58:13;;;;;;;;;;;16.00;99.90;;;;;;5053134;28;20256;-85
2023/01/06 04:00:40;;;;;;;;;;;16.00;99.90;;;;;;5034793;28;19935;-85
2023/01/06 04:03:07;;;;;;;;;;;16.00;99.90;;;;;;5051813;28;19943;-85
2023/01/06 04:05:33;;;;;;;;;;;16.00;99.90;;;;;;5051880;28;19908;-85
2023/01/06 04:07:59;;;;;;;;;;;16.00;99.90;;;;;;5034776;28;19909;-85
2023/01/06 04:10:24;;;;;;;;;;;16.00;99.90;;;;;;5033744;28;19905;-85
2023/01/06 04:12:50;;;;;;;;;;;16.00;99.90;;;;;;5034220;28;19990;-85
2023/01/06 04:15:17;;;;;;;;;;;15.90;99.90;;;;;;5034023;28;19917;-85
2023/01/06 04:17:43;;;;;;;;;;;16.00;99.90;;;;;;5035113;28;19916;-85
2023/01/06 04:20:11;;;;;;;;;;;15.90;99.90;;;;;;5036041;28;19916;-85
2023/01/06 04:22:37;;;;;;;;;;;15.90;99.90;;;;;;5036630;28;19909;-85
2023/01/06 04:25:03;;;;;;;;;;;15.90;99.90;;;;;;5036566;28;19916;-85
2023/01/06 04:27:37;;;;;;;;;;;15.90;99.90;;;;;;5019108;28;20164;-85
2023/01/06 04:30:03;;;;;;;;;;;15.90;99.90;;;;;;5036296;28;19916;-85
2023/01/06 04:32:28;;;;;;;;;;;15.90;99.90;;;;;;4971677;28;1853165;-85
2023/01/06 04:34:54;;;;;;;;;;;15.90;99.90;;;;;;5035279;28;20003;-85
2023/01/06 04:37:20;;;;;;;;;;;15.90;99.90;;;;;;5051787;28;19916;-85
2023/01/06 04:39:45;;;;;;;;;;;15.90;99.90;;;;;;5033166;28;20023;-84
2023/01/06 04:42:11;;;;;;;;;;;15.90;99.90;;;;;;5034810;28;20003;-84
2023/01/06 04:44:36;;;;;;;;;;;15.90;99.90;;;;;;5033886;28;19909;-85
2023/01/06 04:47:02;;;;;;;;;;;15.90;99.90;;;;;;5034941;28;20212;-85
2023/01/06 04:49:28;;;;;;;;;;;15.90;99.90;;;;;;5052447;28;20199;-85
2023/01/06 04:51:54;;;;;;;;;;;15.90;99.90;;;;;;5035951;28;19909;-85
2023/01/06 04:54:19;;;;;;;;;;;15.80;99.90;;;;;;5036535;28;19916;-85
2023/01/06 04:56:45;;;;;;;;;;;15.80;99.90;;;;;;5053890;28;20396;-85
2023/01/06 04:59:11;;;;;;;;;;;15.80;99.90;;;;;;5036768;28;19987;-84
2023/01/06 05:01:36;;;;;;;;;;;15.80;99.90;;;;;;5036534;28;20007;-85
2023/01/06 05:04:02;;;;;;;;;;;15.80;99.90;;;;;;5053512;28;20002;-85
2023/01/06 05:06:28;;;;;;;;;;;15.80;99.90;;;;;;5040793;28;19959;-85
2023/01/06 05:08:53;;;;;;;;;;;15.80;99.90;;;;;;5041377;28;20007;-85
2023/01/06 05:11:20;;;;;;;;;;;15.80;99.90;;;;;;5041233;28;19912;-85
2023/01/06 05:13:46;;;;;;;;;;;15.80;99.90;;;;;;5039907;28;20110;-85
2023/01/06 05:16:21;;;;;;;;;;;15.80;99.90;;;;;;5039795;28;19923;-85
2023/01/06 05:18:47;;;;;;;;;;;15.80;99.90;;;;;;5039157;28;19952;-84
2023/01/06 05:21:12;;;;;;;;;;;15.80;99.90;;;;;;5040356;28;19959;-85
2023/01/06 05:23:38;;;;;;;;;;;15.70;99.90;;;;;;5040617;28;19936;-85
2023/01/06 05:26:04;;;;;;;;;;;15.70;99.90;;;;;;5040409;28;19944;-85
2023/01/06 05:28:30;;;;;;;;;;;15.70;99.90;;;;;;5040506;28;19935;-85
2023/01/06 05:30:59;;;;;;;;;;;15.70;99.90;;;;;;5040620;28;20350;-85
2023/01/06 05:33:25;;;;;;;;;;;15.70;99.90;;;;;;5040032;28;19986;-85
2023/01/06 05:35:56;;;;;;;;;;;15.70;99.90;;;;;;5055621;28;19913;-85
2023/01/06 05:38:22;;;;;;;;;;;15.70;99.90;;;;;;5039394;28;19917;-85
2023/01/06 05:40:51;;;;;;;;;;;16.50;99.10;;;;;;5039510;28;20229;-85
2023/01/06 05:43:16;;;;;;;;;;;17.50;96.50;;;;;;5038377;28;20346;-85
2023/01/06 05:45:42;;;;;;;;;;;17.80;95.30;;;;;;5037688;28;20160;-85
2023/01/06 05:48:08;;;;;;;;;;;18.10;94.50;;;;;;5055685;28;19999;-84
2023/01/06 05:50:33;;;;;;;;;;;18.20;93.80;;;;;;5039673;28;20241;-85
2023/01/06 05:52:59;;;;;;;;;;;18.40;93.30;;;;;;5038883;28;19920;-85
2023/01/06 05:55:24;;;;;;;;;;;18.60;92.60;;;;;;5038121;28;19935;-85
2023/01/06 05:57:50;;;;;;;;;;;18.70;92.00;;;;;;5057355;28;19916;-85
2023/01/06 06:00:49;;;;;;;;;;;18.80;91.50;;;;;;5038062;28;20186;-86
2023/01/06 06:03:15;;;;;;;;;;;18.90;91.10;;;;;;5038589;28;19909;-86
2023/01/06 06:05:41;;;;;;;;;;;19.00;90.80;;;;;;5036807;28;20159;-85
2023/01/06 06:08:06;;;;;;;;;;;19.00;90.60;;;;;;5035908;28;19920;-86
2023/01/06 06:10:32;;;;;;;;;;;19.00;90.60;;;;;;5052472;28;19908;-86
2023/01/06 06:12:57;;;;;;;;;;;19.00;90.60;;;;;;5034274;28;19909;-85
2023/01/06 06:15:23;;;;;;;;;;;18.90;90.70;;;;;;5052462;28;20205;-86
2023/01/06 06:17:48;;;;;;;;;;;18.80;90.80;;;;;;5035650;28;20327;-85
2023/01/06 06:20:14;;;;;;;;;;;18.80;90.90;;;;;;5036704;28;19909;-85
2023/01/06 06:22:39;;;;;;;;;;;18.70;91.00;;;;;;5037617;28;19920;-85
2023/01/06 06:25:05;;;;;;;;;;;18.60;91.20;;;;;;5035164;28;20286;-86
2023/01/06 06:27:31;;;;;;;;;;;18.60;91.50;;;;;;5054913;28;19995;-86
2023/01/06 06:29:56;;;;;;;;;;;18.50;91.60;;;;;;5053652;28;19915;-86
2023/01/06 06:32:22;;;;;;;;;;;18.40;91.90;;;;;;5034714;28;20238;-86
2023/01/06 06:34:48;;;;;;;;;;;18.40;92.10;;;;;;5050827;28;19970;-86
2023/01/06 06:37:13;;;;;;;;;;;18.30;92.30;;;;;;5034061;28;19913;-86
2023/01/06 06:39:39;;;;;;;;;;;18.20;92.50;;;;;;5035793;28;19909;-86
2023/01/06 06:42:05;;;;;;;;;;;18.10;92.80;;;;;;5034917;28;20322;-86
2023/01/06 06:44:30;;;;;;;;;;;18.00;93.00;;;;;;5052985;28;19917;-86
2023/01/06 06:46:56;;;;;;;;;;;17.90;93.30;;;;;;5035168;28;19917;-86
2023/01/06 06:49:22;;;;;;;;;;;17.80;93.50;;;;;;5042514;28;19943;-86
2023/01/06 06:51:48;;;;;;;;;;;17.70;93.90;;;;;;5033493;28;20191;-86
2023/01/06 06:54:13;;;;;;;;;;;17.60;94.30;;;;;;5034507;28;20279;-86
2023/01/06 06:56:39;;;;;;;;;;;17.50;94.80;;;;;;5032891;28;19913;-86
2023/01/06 06:59:04;;;;;;;;;;;17.40;95.30;;;;;;5032937;28;19909;-86
2023/01/06 07:01:31;;;;;;;;;;;17.30;95.80;;;;;;5032311;28;20195;-86
2023/01/06 07:03:57;;;;;;;;;;;17.20;96.10;;;;;;5033335;28;19939;-86
2023/01/06 07:06:23;;;;;;;;;;;17.10;96.50;;;;;;5034295;28;19909;-85
2023/01/06 07:08:49;;;;;;;;;;;17.10;96.90;;;;;;5034686;28;19916;-85
2023/01/06 07:11:15;;;;;;;;;;;17.00;97.20;;;;;;5031984;28;19994;-86
2023/01/06 07:13:41;;;;;;;;;;;16.90;97.40;;;;;;5031632;28;19909;-86
2023/01/06 07:16:07;;;;;;;;;;;16.90;97.60;;;;;;5031843;28;20242;-86
2023/01/06 07:18:32;;;;;;;;;;;16.90;97.60;;;;;;5032646;28;19917;-86
2023/01/06 07:20:58;;;;;;;;;;;16.90;97.60;;;;;;5032538;28;19919;-86
2023/01/06 07:23:24;;;;;;;;;;;16.90;97.70;;;;;;5030749;28;20186;-87
2023/01/06 07:25:51;;;;;;;;;;;16.90;97.60;;;;;;5032832;28;19909;-87
2023/01/06 07:28:16;;;;;;;;;;;17.00;97.60;;;;;;5031556;28;19909;-86
2023/01/06 07:30:42;;;;;;;;;;;17.10;97.40;;;;;;5030390;28;19909;-86
2023/01/06 07:33:07;;;;;;;;;;;17.20;97.20;;;;;;5049292;28;19927;-86
2023/01/06 07:35:33;;;;;;;;;;;17.30;96.80;;;;;;5029824;28;19920;-86
2023/01/06 07:38:07;;;;;;;;;;;17.40;96.60;;;;;;5029449;28;19935;-86
2023/01/06 07:40:33;;;;;;;;;;;17.50;96.20;;;;;;5029148;28;19920;-86
2023/01/06 07:43:06;;;;;;;;;;;17.70;95.70;;;;;;5030816;28;19908;-86
2023/01/06 07:45:31;;;;;;;;;;;17.70;95.30;;;;;;5048082;28;20172;-86
2023/01/06 07:47:57;;;;;;;;;;;17.90;94.90;;;;;;5048314;28;19913;-86
2023/01/06 07:50:23;;;;;;;;;;;18.00;94.50;;;;;;5048940;28;19972;-86
2023/01/06 07:52:48;;;;;;;;;;;18.00;94.20;;;;;;5031695;28;19909;-86
2023/01/06 07:55:14;;;;;;;;;;;18.00;94.10;;;;;;5048410;28;19995;-85
2023/01/06 07:57:39;;;;;;;;;;;18.00;94.10;;;;;;5032884;28;19912;-86
2023/01/06 08:00:05;;;;;;;;;;;17.90;94.20;;;;;;5031941;28;19909;-86
2023/01/06 08:02:31;;;;;;;;;;;17.90;94.40;;;;;;5045744;28;19947;-86
2023/01/06 08:04:57;;;;;;;;;;;17.80;94.50;;;;;;5031496;28;19909;-86
2023/01/06 08:07:22;;;;;;;;;;;17.80;94.70;;;;;;5030650;28;19919;-86
2023/01/06 08:09:48;;;;;;;;;;;17.70;94.80;;;;;;5048050;28;19995;-87
2023/01/06 08:12:15;;;;;;;;;;;17.60;95.00;;;;;;5031535;28;19923;-86
2023/01/06 08:14:40;;;;;;;;;;;17.50;95.20;;;;;;5029400;28;19986;-86
2023/01/06 08:17:06;;;;;;;;;;;17.40;95.40;;;;;;5029638;28;19920;-86
2023/01/06 08:19:31;;;;;;;;;;;17.40;95.60;;;;;;5030047;28;19972;-86
2023/01/06 08:21:57;;;;;;;;;;;17.30;95.70;;;;;;5048225;28;19992;-86
2023/01/06 08:24:22;;;;;;;;;;;17.20;95.90;;;;;;5028479;28;19959;-85
2023/01/06 08:26:48;;;;;;;;;;;17.20;96.10;;;;;;5028693;28;19974;-86
2023/01/06 08:29:14;;;;;;;;;;;17.10;96.30;;;;;;5028239;28;19920;-86
2023/01/06 08:31:39;;;;;;;;;;;17.00;96.50;;;;;;5028887;28;20024;-86
2023/01/06 08:34:05;;;;;;;;;;;17.00;96.60;;;;;;5029220;28;20179;-86
2023/01/06 08:36:30;;;;;;;;;;;16.90;96.70;;;;;;5047382;28;20205;-86
2023/01/06 08:38:56;;;;;;;;;;;16.90;96.90;;;;;;5029243;28;19916;-86
2023/01/06 08:41:22;;;;;;;;;;;16.90;97.00;;;;;;5050561;28;19915;-86
2023/01/06 08:43:47;;;;;;;;;;;16.80;97.00;;;;;;5034518;28;19952;-86
2023/01/06 08:46:16;;;;;;;;;;;16.80;97.10;;;;;;5052621;28;20007;-85
2023/01/06 08:48:41;;;;;;;;;;;16.80;97.20;;;;;;5033587;28;19920;-85
2023/01/06 08:51:10;;;;;;;;;;;16.80;97.20;;;;;;5031822;28;20131;-87
2023/01/06 08:53:36;;;;;;;;;;;16.80;97.20;;;;;;5030689;28;19975;-86
2023/01/06 08:56:02;;;;;;;;;;;16.80;97.20;;;;;;5047932;28;20157;-86
2023/01/06 08:58:28;;;;;;;;;;;16.80;97.20;;;;;;5032832;28;20237;-86
2023/01/06 09:00:53;;;;;;;;;;;16.80;97.30;;;;;;5032899;28;19909;-85
2023/01/06 09:03:19;;;;;;;;;;;16.80;97.30;;;;;;5033010;28;19966;-86
2023/01/06 09:05:54;;;;;;;;;;;16.80;97.30;;;;;;5052024;28;20067;-86
2023/01/06 09:08:20;;;;;;;;;;;16.80;97.30;;;;;;5034833;28;19909;-86
2023/01/06 09:10:45;;;;;;;;;;;16.80;97.30;;;;;;5032007;28;20234;-86
2023/01/06 09:13:11;;;;;;;;;;;16.80;97.20;;;;;;5051600;28;19970;-85
2023/01/06 09:15:41;;;;;;;;;;;16.80;97.20;;;;;;5033655;28;19939;-86
2023/01/06 09:18:09;;;;;;;;;;;16.80;97.20;;;;;;5050270;28;19968;-86
2023/01/06 09:20:36;;;;;;;;;;;16.80;97.10;;;;;;5050433;28;19946;-86
2023/01/06 09:23:02;;;;;;;;;;;16.90;97.20;;;;;;5033407;28;19936;-86
2023/01/06 09:25:28;;;;;;;;;;;16.90;97.20;;;;;;5032997;28;19909;-86
2023/01/06 09:27:53;;;;;;;;;;;16.90;97.10;;;;;;5033647;28;19909;-85
2023/01/06 09:30:19;;;;;;;;;;;16.90;97.00;;;;;;5033914;28;19909;-86
2023/01/06 09:32:47;;;;;;;;;;;16.90;97.00;;;;;;5035435;28;19928;-86
2023/01/06 09:35:12;;;;;;;;;;;17.00;97.00;;;;;;5051528;28;20076;-85
2023/01/06 09:37:38;;;;;;;;;;;17.00;96.90;;;;;;5032728;28;20134;-86
2023/01/06 09:40:04;;;;;;;;;;;17.00;96.80;;;;;;5033279;28;20396;-86
2023/01/06 09:42:43;;;;;;;;;;;17.00;96.80;;;;;;5031751;28;20164;-86
2023/01/06 09:45:16;;;;;;;;;;;17.00;96.80;;;;;;5032050;28;20087;-86
2023/01/06 09:47:46;;;;;;;;;;;17.00;96.90;;;;;;5032212;28;20256;-86
2023/01/06 09:50:23;;;;;;;;;;;17.00;96.90;;;;;;5051303;28;19908;-86
2023/01/06 09:52:56;;;;;;;;;;;17.00;96.90;;;;;;5050435;28;19934;-86
2023/01/06 09:55:25;;;;;;;;;;;17.00;96.90;;;;;;5032140;28;20199;-86
2023/01/06 09:57:53;;;;;;;;;;;17.00;97.00;;;;;;5030879;28;20310;-86
2023/01/06 10:00:24;;;;;;;;;;;17.00;97.10;;;;;;5032030;28;19917;-86
2023/01/06 10:02:49;;;;;;;;;;;16.90;97.10;;;;;;5032024;28;20370;-86
2023/01/06 10:05:47;;;;;;;;;;;16.90;97.10;;;;;;5030805;28;20301;-86
2023/01/06 10:08:22;;;;;;;;;;;16.90;97.20;;;;;;4998048;28;19908;-86
2023/01/06 10:11:03;;;;;;;;;;;16.90;97.30;;;;;;5033380;28;19909;-86
2023/01/06 10:13:29;;;;;;;;;;;16.90;97.30;;;;;;5030696;28;19913;-86
2023/01/06 10:15:57;;;;;;;;;;;16.90;97.30;;;;;;5049092;28;19934;-86
2023/01/06 10:18:34;;;;;;;;;;;16.90;97.30;;;;;;5033182;28;20321;-85
2023/01/06 10:21:05;;;;;;;;;;;16.90;97.40;;;;;;5032326;28;20207;-86
2023/01/06 10:23:54;;;;;;;;;;;16.90;97.50;;;;;;5032363;28;20186;-86
2023/01/06 10:26:22;;;;;;;;;;;16.80;97.60;;;;;;5002666;28;20298;-86
2023/01/06 10:28:52;;;;;;;;;;;16.80;97.80;;;;;;5031872;28;19913;-86
2023/01/06 10:31:20;;;;;;;;;;;16.80;97.90;;;;;;5031541;28;20004;-86
2023/01/06 10:33:50;;;;;;;;;;;16.80;98.00;;;;;;5035859;28;19925;-86
2023/01/06 10:36:16;;;;;;;;;;;16.70;98.00;;;;;;5034234;28;20070;-86
2023/01/06 10:38:44;;;;;;;;;;;16.70;98.20;;;;;;5033120;28;19993;-87
2023/01/06 10:41:28;;;;;;;;;;;16.70;98.30;;;;;;5033911;28;19966;-86
2023/01/06 10:43:55;;;;;;;;;;;16.70;98.40;;;;;;5032648;28;19916;-86
2023/01/06 10:46:20;;;;;;;;;;;16.70;98.60;;;;;;5045654;28;19966;-86
2023/01/06 10:48:48;;;;;;;;;;;16.60;98.70;;;;;;5028422;28;19954;-86
2023/01/06 10:51:30;;;;;;;;;;;16.60;98.80;;;;;;5027901;28;20293;-86
2023/01/06 10:53:56;;;;;;;;;;;16.60;98.70;;;;;;5029073;28;19917;-86
2023/01/06 10:56:22;;;;;;;;;;;16.70;98.60;;;;;;5026601;28;20188;-85
2023/01/06 10:58:54;;;;;;;;;;;16.70;98.50;;;;;;5026214;28;20430;-85
2023/01/06 11:01:23;;;;;;;;;;;16.70;98.60;;;;;;5026533;28;20290;-86
2023/01/06 11:04:12;;;;;;;;;;;16.70;98.50;;;;;;5043955;28;19948;-85
2023/01/06 11:06:52;;;;;;;;;;;16.70;98.50;;;;;;5020353;28;20260;-86
2023/01/06 11:09:21;;;;;;;;;;;16.80;98.40;;;;;;5028385;28;19931;-85
2023/01/06 11:11:48;;;;;;;;;;;16.80;98.40;;;;;;5047699;28;20194;-85
2023/01/06 11:14:16;;;;;;;;;;;16.90;98.30;;;;;;5029564;28;20220;-85
2023/01/06 11:16:41;;;;;;;;;;;17.00;98.20;;;;;;5044942;28;20286;-86
2023/01/06 11:19:20;;;;;;;;;;;17.00;98.10;;;;;;5025704;28;20114;-86
2023/01/06 11:21:46;;;;;;;;;;;17.10;98.10;;;;;;5024528;28;20000;-85
2023/01/06 11:24:14;;;;;;;;;;;17.10;97.90;;;;;;5045663;28;20007;-86
2023/01/06 11:26:44;;;;;;;;;;;17.20;97.80;;;;;;5028753;28;19920;-85
2023/01/06 11:29:16;;;;;;;;;;;17.30;97.60;;;;;;5031885;28;19943;-85
2023/01/06 11:31:45;;;;;;;;;;;17.30;97.50;;;;;;5029359;28;20276;-85
2023/01/06 11:34:18;;;;;;;;;;;17.40;97.30;;;;;;5027183;28;19921;-85
2023/01/06 11:36:46;;;;;;;;;;;17.40;97.30;;;;;;5029238;28;19913;-85
2023/01/06 11:39:13;;;;;;;;;;;17.40;97.10;;;;;;5027968;28;19909;-86
2023/01/06 11:41:42;;;;;;;;;;;17.40;97.00;;;;;;5027647;28;20077;-85
2023/01/06 11:44:11;;;;;;;;;;;17.40;97.00;;;;;;5027366;28;19909;-85
2023/01/06 11:46:37;;;;;;;;;;;17.40;96.90;;;;;;5030165;28;19909;-85
2023/01/06 11:49:09;;;;;;;;;;;17.40;97.00;;;;;;5030666;28;19917;-85
2023/01/06 11:51:41;;;;;;;;;;;17.40;97.00;;;;;;5029583;28;20103;-85
2023/01/06 11:54:20;;;;;;;;;;;17.40;97.00;;;;;;5028847;28;19979;-85
2023/01/06 11:57:01;;;;;;;;;;;17.40;97.30;;;;;;5028254;28;20310;-85
2023/01/06 11:59:30;;;;;;;;;;;17.30;97.00;;;;;;5044892;28;19975;-85
2023/01/06 12:01:58;;;;;;;;;;;17.30;97.10;;;;;;5026499;28;20050;-85
2023/01/06 12:04:30;;;;;;;;;;;17.20;97.20;;;;;;5027546;28;19944;-85
2023/01/06 12:06:59;;;;;;;;;;;17.20;97.20;;;;;;5026773;28;19916;-85
2023/01/06 12:09:34;;;;;;;;;;;17.20;97.20;;;;;;5029162;28;19962;-86
2023/01/06 12:12:09;;;;;;;;;;;17.20;97.20;;;;;;5030260;28;20003;-85
2023/01/06 12:14:36;;;;;;;;;;;17.20;97.20;;;;;;5027005;28;19916;-85
2023/01/06 12:17:05;;;;;;;;;;;17.20;97.10;;;;;;5026049;28;19913;-85
2023/01/06 12:19:33;;;;;;;;;;;17.20;97.20;;;;;;5027750;28;19916;-85
2023/01/06 12:22:00;;;;;;;;;;;17.30;97.10;;;;;;5028633;28;19912;-86
2023/01/06 12:24:28;;;;;;;;;;;17.20;97.10;;;;;;5047842;28;19913;-85
2023/01/06 12:26:53;;;;;;;;;;;17.20;97.10;;;;;;5028380;28;19982;-85
2023/01/06 12:29:20;;;;;;;;;;;17.30;97.10;;;;;;5044604;28;19940;-86
2023/01/06 12:32:17;;;;;;;;;;;17.30;96.90;;;;;;5046446;28;20263;-85
2023/01/06 12:34:49;;;;;;;;;;;17.30;96.90;;;;;;5015839;28;19979;-86
2023/01/06 12:37:33;;;;;;;;;;;17.30;97.00;;;;;;5027754;28;19913;-86
2023/01/06 12:40:03;;;;;;;;;;;17.30;97.10;;;;;;5027747;28;19912;-86
2023/01/06 12:42:36;;;;;;;;;;;17.30;97.30;;;;;;5029661;28;19919;-85
2023/01/06 12:45:09;;;;;;;;;;;17.20;97.40;;;;;;5033183;28;19978;-85
2023/01/06 12:47:36;;;;;;;;;;;17.20;97.30;;;;;;5030813;28;19909;-85
2023/01/06 12:50:23;;;;;;;;;;;17.30;97.30;;;;;;5047714;28;20203;-86
2023/01/06 12:52:51;;;;;;;;;;;17.30;97.20;;;;;;5029944;28;20170;-86
2023/01/06 12:55:27;;;;;;;;;;;17.30;97.20;;;;;;5041712;28;19970;-86
2023/01/06 12:57:56;;;;;;;;;;;17.30;97.20;;;;;;5014490;28;20181;-85
2023/01/06 13:00:28;;;;;;;;;;;17.40;97.20;;;;;;5045525;28;19909;-86
2023/01/06 13:03:06;;;;;;;;;;;17.40;97.10;;;;;;5010427;28;19910;-86
2023/01/06 13:05:40;;;;;;;;;;;17.40;97.00;;;;;;4989152;28;19960;-86
2023/01/06 13:08:25;;;;;;;;;;;17.50;96.80;;;;;;4989027;28;20165;-86
2023/01/06 13:11:02;;;;;;;;;;;17.50;96.80;;;;;;4990655;28;19909;-86
2023/01/06 13:13:41;;;;;;;;;;;17.50;96.70;;;;;;5006748;28;19940;-86
2023/01/06 13:16:30;;;;;;;;;;;17.60;96.70;;;;;;4992455;28;20271;-86
2023/01/06 13:19:08;;;;;;;;;;;17.60;96.70;;;;;;4987923;28;19920;-86
2023/01/06 13:21:34;;;;;;;;;;;17.60;96.60;;;;;;5006804;28;19916;-86
2023/01/06 13:24:06;;;;;;;;;;;17.60;96.70;;;;;;5008837;28;19909;-86
2023/01/06 13:26:50;;;;;;;;;;;17.50;96.70;;;;;;4993518;28;20092;-86
2023/01/06 13:29:31;;;;;;;;;;;17.50;96.80;;;;;;4993206;28;19937;-85
2023/01/06 13:32:16;;;;;;;;;;;17.40;96.90;;;;;;5010131;28;19909;-85
2023/01/06 13:34:41;;;;;;;;;;;17.40;97.00;;;;;;4993016;28;20280;-85
2023/01/06 13:37:25;;;;;;;;;;;17.30;97.10;;;;;;4990559;28;19924;-86
2023/01/06 13:39:54;;;;;;;;;;;17.30;97.20;;;;;;5010111;28;20008;-85
2023/01/06 13:42:28;;;;;;;;;;;17.30;97.40;;;;;;4989848;28;19975;-86
2023/01/06 13:44:54;;;;;;;;;;;17.20;97.50;;;;;;5005537;28;20268;-86
2023/01/06 13:47:22;;;;;;;;;;;17.20;97.60;;;;;;4995290;28;19917;-85
2023/01/06 13:49:49;;;;;;;;;;;17.20;97.70;;;;;;4988791;28;20279;-85
2023/01/06 13:52:18;;;;;;;;;;;17.10;97.70;;;;;;4992598;28;19971;-85
2023/01/06 13:54:44;;;;;;;;;;;17.10;97.80;;;;;;5017544;28;19924;-86
2023/01/06 13:57:22;;;;;;;;;;;17.10;97.90;;;;;;5015849;28;19913;-86
2023/01/06 13:59:49;;;;;;;;;;;17.10;98.00;;;;;;5007028;28;19909;-85
2023/01/06 14:02:33;;;;;;;;;;;17.10;98.00;;;;;;5028813;28;19910;-86
2023/01/06 14:05:02;;;;;;;;;;;17.00;98.00;;;;;;5016244;28;19913;-86
2023/01/06 14:07:35;;;;;;;;;;;17.10;98.00;;;;;;5030428;28;19936;-86
2023/01/06 14:10:01;;;;;;;;;;;17.10;98.00;;;;;;4998313;28;19921;-86
2023/01/06 14:12:28;;;;;;;;;;;17.10;98.00;;;;;;4998976;28;19921;-86
2023/01/06 14:15:01;;;;;;;;;;;17.10;98.00;;;;;;4997591;28;19973;-86
2023/01/06 14:17:36;;;;;;;;;;;17.10;98.00;;;;;;5029355;28;20320;-85
2023/01/06 14:20:02;;;;;;;;;;;17.20;97.90;;;;;;4998914;28;20003;-85
2023/01/06 14:22:28;;;;;;;;;;;17.20;97.90;;;;;;5016184;28;19916;-85
2023/01/06 14:25:02;;;;;;;;;;;17.20;97.80;;;;;;5019367;28;19920;-85
2023/01/06 14:27:45;;;;;;;;;;;17.20;97.80;;;;;;5018427;28;19917;-85
2023/01/06 14:30:20;;;;;;;;;;;17.20;97.70;;;;;;4999828;28;19916;-86
2023/01/06 14:32:46;;;;;;;;;;;17.30;97.70;;;;;;5000133;28;19968;-86